Everton, United Kingdom
Current Conditions -  °F | °C
As of 10:50 AM on Friday 28 Nov 2014 (Local Time) from EGCN Reporting Station
Haze Haze  
Wind Chill: 11°   Ceiling: 2000
Heat Index: 11°   Visibility: 3mi
Dew Point: 10°   Wind: 7mph
Humidity: 94%   Direction: 60°ENE
Pressure: 29.71"   Gusts: NA
Location:  53.4°N, 0.9°W
Report Text: EGCN 281050Z 06006KT 5000 BR BKN020 OVC025 11/10 Q1006
Loading
Personal Weather Stations






























Interactive Weather Map New forecast layout! Learn more

10-Day Weather Forecast

Advertisements
Track Severe Weather on mobile